sensor_id;sensor_type;location;lat;lon;timestamp;P1;durP1;ratioP1;P2;durP2;ratioP2
59960;SDS011;55902;-37.980;-63.602;2023-02-13T00:01:51;5.25;;;1.30;;
59960;SDS011;55902;-37.980;-63.602;2023-02-13T00:04:34;4.70;;;1.30;;
59960;SDS011;55902;-37.980;-63.602;2023-02-13T00:07:13;5.03;;;1.55;;
59960;SDS011;55902;-37.980;-63.602;2023-02-13T00:09:47;4.57;;;1.67;;
59960;SDS011;55902;-37.980;-63.602;2023-02-13T00:12:19;5.78;;;1.38;;
59960;SDS011;55902;-37.980;-63.602;2023-02-13T00:14:51;5.55;;;1.10;;
59960;SDS011;55902;-37.980;-63.602;2023-02-13T00:27:25;6.32;;;1.95;;
59960;SDS011;55902;-37.980;-63.602;2023-02-13T00:29:58;3.67;;;2.10;;
59960;SDS011;55902;-37.980;-63.602;2023-02-13T00:32:36;4.72;;;2.25;;
59960;SDS011;55902;-37.980;-63.602;2023-02-13T00:35:08;4.47;;;2.00;;
59960;SDS011;55902;-37.980;-63.602;2023-02-13T00:37:49;4.75;;;1.50;;
59960;SDS011;55902;-37.980;-63.602;2023-02-13T00:40:26;4.18;;;1.40;;
59960;SDS011;55902;-37.980;-63.602;2023-02-13T00:43:14;3.85;;;1.35;;
59960;SDS011;55902;-37.980;-63.602;2023-02-13T00:45:43;14.75;;;5.43;;
59960;SDS011;55902;-37.980;-63.602;2023-02-13T00:48:18;12.80;;;3.53;;
59960;SDS011;55902;-37.980;-63.602;2023-02-13T00:50:48;11.13;;;2.95;;
59960;SDS011;55902;-37.980;-63.602;2023-02-13T00:53:18;9.15;;;2.67;;
59960;SDS011;55902;-37.980;-63.602;2023-02-13T00:55:56;9.23;;;2.50;;
59960;SDS011;55902;-37.980;-63.602;2023-02-13T00:58:29;10.33;;;2.90;;
59960;SDS011;55902;-37.980;-63.602;2023-02-13T01:00:57;15.88;;;3.10;;
59960;SDS011;55902;-37.980;-63.602;2023-02-13T01:03:29;9.60;;;3.20;;
59960;SDS011;55902;-37.980;-63.602;2023-02-13T01:05:56;12.15;;;3.00;;
59960;SDS011;55902;-37.980;-63.602;2023-02-13T01:08:23;6.30;;;2.60;;
59960;SDS011;55902;-37.980;-63.602;2023-02-13T01:10:53;9.50;;;2.47;;
59960;SDS011;55902;-37.980;-63.602;2023-02-13T01:13:21;9.88;;;2.60;;
59960;SDS011;55902;-37.980;-63.602;2023-02-13T01:15:49;7.25;;;2.22;;
59960;SDS011;55902;-37.980;-63.602;2023-02-13T01:24:50;16.98;;;3.53;;
59960;SDS011;55902;-37.980;-63.602;2023-02-13T01:27:18;10.02;;;3.17;;
59960;SDS011;55902;-37.980;-63.602;2023-02-13T01:29:54;7.90;;;3.45;;
59960;SDS011;55902;-37.980;-63.602;2023-02-13T01:32:27;10.90;;;4.35;;
59960;SDS011;55902;-37.980;-63.602;2023-02-13T01:35:01;8.45;;;4.22;;
59960;SDS011;55902;-37.980;-63.602;2023-02-13T01:37:50;12.82;;;3.95;;
59960;SDS011;55902;-37.980;-63.602;2023-02-13T01:40:19;13.68;;;3.55;;
59960;SDS011;55902;-37.980;-63.602;2023-02-13T01:42:46;11.20;;;3.85;;
59960;SDS011;55902;-37.980;-63.602;2023-02-13T01:50:31;15.85;;;4.22;;
59960;SDS011;55902;-37.980;-63.602;2023-02-13T01:53:10;14.55;;;4.72;;
59960;SDS011;55902;-37.980;-63.602;2023-02-13T01:55:51;13.63;;;5.55;;
59960;SDS011;55902;-37.980;-63.602;2023-02-13T01:58:26;9.60;;;4.13;;
59960;SDS011;55902;-37.980;-63.602;2023-02-13T02:00:57;12.85;;;4.88;;
59960;SDS011;55902;-37.980;-63.602;2023-02-13T02:06:28;6.45;;;1.95;;
59960;SDS011;55902;-37.980;-63.602;2023-02-13T02:09:04;8.18;;;1.65;;
59960;SDS011;55902;-37.980;-63.602;2023-02-13T02:14:32;7.55;;;1.80;;
59960;SDS011;55902;-37.980;-63.602;2023-02-13T02:17:02;8.20;;;1.75;;
59960;SDS011;55902;-37.980;-63.602;2023-02-13T02:19:44;11.53;;;1.90;;
59960;SDS011;55902;-37.980;-63.602;2023-02-13T02:39:41;9.40;;;1.85;;
59960;SDS011;55902;-37.980;-63.602;2023-02-13T02:42:23;9.38;;;1.77;;
59960;SDS011;55902;-37.980;-63.602;2023-02-13T02:47:51;3.67;;;1.50;;
59960;SDS011;55902;-37.980;-63.602;2023-02-13T02:51:09;4.38;;;1.40;;
59960;SDS011;55902;-37.980;-63.602;2023-02-13T02:53:41;8.35;;;1.83;;
59960;SDS011;55902;-37.980;-63.602;2023-02-13T02:56:37;6.68;;;1.55;;
59960;SDS011;55902;-37.980;-63.602;2023-02-13T02:59:09;6.07;;;1.30;;
59960;SDS011;55902;-37.980;-63.602;2023-02-13T03:01:58;4.82;;;1.30;;
59960;SDS011;55902;-37.980;-63.602;2023-02-13T03:04:50;4.00;;;1.23;;
59960;SDS011;55902;-37.980;-63.602;2023-02-13T03:07:42;3.30;;;1.35;;
59960;SDS011;55902;-37.980;-63.602;2023-02-13T03:10:10;4.78;;;1.42;;
59960;SDS011;55902;-37.980;-63.602;2023-02-13T03:13:17;3.42;;;1.50;;
59960;SDS011;55902;-37.980;-63.602;2023-02-13T03:16:09;11.70;;;1.80;;
59960;SDS011;55902;-37.980;-63.602;2023-02-13T03:18:58;67.03;;;4.93;;
59960;SDS011;55902;-37.980;-63.602;2023-02-13T03:27:44;40.10;;;3.95;;
59960;SDS011;55902;-37.980;-63.602;2023-02-13T03:41:57;18.67;;;2.05;;
59960;SDS011;55902;-37.980;-63.602;2023-02-13T03:47:43;13.15;;;2.00;;
59960;SDS011;55902;-37.980;-63.602;2023-02-13T03:50:12;14.75;;;1.90;;
59960;SDS011;55902;-37.980;-63.602;2023-02-13T03:52:43;10.55;;;2.00;;
59960;SDS011;55902;-37.980;-63.602;2023-02-13T03:55:27;8.10;;;1.55;;
59960;SDS011;55902;-37.980;-63.602;2023-02-13T03:58:18;12.77;;;2.20;;
59960;SDS011;55902;-37.980;-63.602;2023-02-13T04:01:25;9.45;;;1.88;;
59960;SDS011;55902;-37.980;-63.602;2023-02-13T04:03:58;4.88;;;1.50;;
59960;SDS011;55902;-37.980;-63.602;2023-02-13T04:06:59;9.77;;;1.65;;
59960;SDS011;55902;-37.980;-63.602;2023-02-13T04:09:32;13.02;;;2.13;;
59960;SDS011;55902;-37.980;-63.602;2023-02-13T04:14:57;11.35;;;2.05;;
59960;SDS011;55902;-37.980;-63.602;2023-02-13T04:17:42;21.17;;;2.25;;
59960;SDS011;55902;-37.980;-63.602;2023-02-13T04:20:18;8.00;;;1.50;;
59960;SDS011;55902;-37.980;-63.602;2023-02-13T04:22:46;11.35;;;2.05;;
59960;SDS011;55902;-37.980;-63.602;2023-02-13T04:25:14;9.63;;;1.80;;
59960;SDS011;55902;-37.980;-63.602;2023-02-13T04:27:43;8.40;;;1.90;;
59960;SDS011;55902;-37.980;-63.602;2023-02-13T04:30:10;11.60;;;1.92;;
59960;SDS011;55902;-37.980;-63.602;2023-02-13T04:32:40;10.30;;;1.83;;
59960;SDS011;55902;-37.980;-63.602;2023-02-13T04:35:10;7.63;;;1.73;;
59960;SDS011;55902;-37.980;-63.602;2023-02-13T04:37:39;7.70;;;1.70;;
59960;SDS011;55902;-37.980;-63.602;2023-02-13T04:40:06;5.38;;;1.70;;
59960;SDS011;55902;-37.980;-63.602;2023-02-13T04:42:33;7.82;;;1.80;;
59960;SDS011;55902;-37.980;-63.602;2023-02-13T04:45:02;6.60;;;1.83;;
59960;SDS011;55902;-37.980;-63.602;2023-02-13T04:47:29;5.30;;;1.67;;
59960;SDS011;55902;-37.980;-63.602;2023-02-13T04:49:57;6.10;;;1.67;;
59960;SDS011;55902;-37.980;-63.602;2023-02-13T04:52:24;4.68;;;1.67;;
59960;SDS011;55902;-37.980;-63.602;2023-02-13T04:58:17;5.13;;;1.50;;
59960;SDS011;55902;-37.980;-63.602;2023-02-13T05:00:44;4.85;;;1.58;;
59960;SDS011;55902;-37.980;-63.602;2023-02-13T05:03:14;3.88;;;1.60;;
59960;SDS011;55902;-37.980;-63.602;2023-02-13T05:11:56;4.35;;;1.40;;
59960;SDS011;55902;-37.980;-63.602;2023-02-13T05:14:23;4.13;;;1.50;;
59960;SDS011;55902;-37.980;-63.602;2023-02-13T05:20:30;5.03;;;1.55;;
59960;SDS011;55902;-37.980;-63.602;2023-02-13T05:23:00;4.80;;;1.77;;
59960;SDS011;55902;-37.980;-63.602;2023-02-13T05:25:52;3.67;;;1.35;;
59960;SDS011;55902;-37.980;-63.602;2023-02-13T05:28:22;3.15;;;1.40;;
59960;SDS011;55902;-37.980;-63.602;2023-02-13T05:31:07;2.55;;;1.48;;
59960;SDS011;55902;-37.980;-63.602;2023-02-13T05:33:34;4.60;;;1.40;;
59960;SDS011;55902;-37.980;-63.602;2023-02-13T05:36:01;4.53;;;1.60;;
59960;SDS011;55902;-37.980;-63.602;2023-02-13T05:38:28;4.68;;;1.60;;
59960;SDS011;55902;-37.980;-63.602;2023-02-13T05:50:59;5.25;;;1.80;;
59960;SDS011;55902;-37.980;-63.602;2023-02-13T05:53:26;4.47;;;1.80;;
59960;SDS011;55902;-37.980;-63.602;2023-02-13T05:55:54;4.90;;;1.80;;
59960;SDS011;55902;-37.980;-63.602;2023-02-13T05:58:21;4.00;;;1.60;;
59960;SDS011;55902;-37.980;-63.602;2023-02-13T06:00:48;4.88;;;1.67;;
59960;SDS011;55902;-37.980;-63.602;2023-02-13T06:03:19;3.58;;;1.42;;
59960;SDS011;55902;-37.980;-63.602;2023-02-13T06:05:46;3.53;;;1.60;;
59960;SDS011;55902;-37.980;-63.602;2023-02-13T06:08:13;5.57;;;1.55;;
59960;SDS011;55902;-37.980;-63.602;2023-02-13T06:10:43;3.42;;;1.50;;
59960;SDS011;55902;-37.980;-63.602;2023-02-13T06:13:11;5.82;;;1.67;;
59960;SDS011;55902;-37.980;-63.602;2023-02-13T06:15:38;4.60;;;1.50;;
59960;SDS011;55902;-37.980;-63.602;2023-02-13T06:18:05;5.68;;;1.70;;
59960;SDS011;55902;-37.980;-63.602;2023-02-13T06:20:32;7.97;;;1.90;;
59960;SDS011;55902;-37.980;-63.602;2023-02-13T06:23:00;9.13;;;1.88;;
59960;SDS011;55902;-37.980;-63.602;2023-02-13T06:25:27;10.77;;;1.77;;
59960;SDS011;55902;-37.980;-63.602;2023-02-13T06:28:02;4.63;;;1.63;;
59960;SDS011;55902;-37.980;-63.602;2023-02-13T06:30:30;4.18;;;1.60;;
59960;SDS011;55902;-37.980;-63.602;2023-02-13T06:32:57;5.50;;;1.70;;
59960;SDS011;55902;-37.980;-63.602;2023-02-13T06:35:28;7.10;;;1.80;;
59960;SDS011;55902;-37.980;-63.602;2023-02-13T06:37:58;5.22;;;1.50;;
59960;SDS011;55902;-37.980;-63.602;2023-02-13T06:40:32;5.40;;;1.80;;
59960;SDS011;55902;-37.980;-63.602;2023-02-13T06:42:59;7.30;;;2.05;;
59960;SDS011;55902;-37.980;-63.602;2023-02-13T06:45:26;4.57;;;1.80;;
59960;SDS011;55902;-37.980;-63.602;2023-02-13T06:47:53;6.03;;;1.73;;
59960;SDS011;55902;-37.980;-63.602;2023-02-13T06:50:22;6.15;;;1.80;;
59960;SDS011;55902;-37.980;-63.602;2023-02-13T06:52:53;7.65;;;1.77;;
59960;SDS011;55902;-37.980;-63.602;2023-02-13T06:55:20;5.65;;;1.80;;
59960;SDS011;55902;-37.980;-63.602;2023-02-13T06:57:47;6.10;;;1.65;;
59960;SDS011;55902;-37.980;-63.602;2023-02-13T07:00:14;5.72;;;1.70;;
59960;SDS011;55902;-37.980;-63.602;2023-02-13T07:02:43;8.63;;;1.60;;
59960;SDS011;55902;-37.980;-63.602;2023-02-13T07:05:13;4.72;;;1.65;;
59960;SDS011;55902;-37.980;-63.602;2023-02-13T07:07:43;5.53;;;1.75;;
59960;SDS011;55902;-37.980;-63.602;2023-02-13T07:10:13;4.57;;;1.52;;
59960;SDS011;55902;-37.980;-63.602;2023-02-13T07:12:40;6.43;;;1.60;;
59960;SDS011;55902;-37.980;-63.602;2023-02-13T07:15:08;5.93;;;1.50;;
59960;SDS011;55902;-37.980;-63.602;2023-02-13T07:17:35;5.93;;;1.80;;
59960;SDS011;55902;-37.980;-63.602;2023-02-13T07:20:03;4.57;;;1.70;;
59960;SDS011;55902;-37.980;-63.602;2023-02-13T07:22:31;5.70;;;1.63;;
59960;SDS011;55902;-37.980;-63.602;2023-02-13T07:24:58;5.25;;;1.73;;
59960;SDS011;55902;-37.980;-63.602;2023-02-13T07:27:26;5.70;;;1.55;;
59960;SDS011;55902;-37.980;-63.602;2023-02-13T07:29:54;5.97;;;1.67;;
59960;SDS011;55902;-37.980;-63.602;2023-02-13T07:35:46;5.55;;;1.50;;
59960;SDS011;55902;-37.980;-63.602;2023-02-13T07:38:17;5.18;;;1.60;;
59960;SDS011;55902;-37.980;-63.602;2023-02-13T07:40:44;6.63;;;1.50;;
59960;SDS011;55902;-37.980;-63.602;2023-02-13T07:43:12;6.88;;;1.70;;
59960;SDS011;55902;-37.980;-63.602;2023-02-13T07:45:42;6.43;;;1.50;;
59960;SDS011;55902;-37.980;-63.602;2023-02-13T07:48:09;6.70;;;1.63;;
59960;SDS011;55902;-37.980;-63.602;2023-02-13T07:50:36;3.42;;;1.83;;
59960;SDS011;55902;-37.980;-63.602;2023-02-13T07:53:02;2.67;;;1.60;;
59960;SDS011;55902;-37.980;-63.602;2023-02-13T07:55:32;5.50;;;1.50;;
59960;SDS011;55902;-37.980;-63.602;2023-02-13T07:58:05;3.35;;;1.38;;
59960;SDS011;55902;-37.980;-63.602;2023-02-13T08:00:32;3.85;;;1.40;;
59960;SDS011;55902;-37.980;-63.602;2023-02-13T08:02:59;5.38;;;1.40;;
59960;SDS011;55902;-37.980;-63.602;2023-02-13T08:05:30;5.10;;;1.52;;
59960;SDS011;55902;-37.980;-63.602;2023-02-13T08:07:58;6.40;;;1.75;;
59960;SDS011;55902;-37.980;-63.602;2023-02-13T08:10:25;6.80;;;1.73;;
59960;SDS011;55902;-37.980;-63.602;2023-02-13T08:13:24;4.70;;;1.38;;
59960;SDS011;55902;-37.980;-63.602;2023-02-13T08:15:52;4.25;;;1.45;;
59960;SDS011;55902;-37.980;-63.602;2023-02-13T08:18:22;5.38;;;1.42;;
59960;SDS011;55902;-37.980;-63.602;2023-02-13T08:20:49;4.15;;;1.40;;
59960;SDS011;55902;-37.980;-63.602;2023-02-13T08:23:16;6.43;;;1.60;;
59960;SDS011;55902;-37.980;-63.602;2023-02-13T08:25:43;6.93;;;1.48;;
59960;SDS011;55902;-37.980;-63.602;2023-02-13T08:28:12;3.83;;;1.30;;
59960;SDS011;55902;-37.980;-63.602;2023-02-13T08:30:39;6.38;;;1.40;;
59960;SDS011;55902;-37.980;-63.602;2023-02-13T08:33:06;3.28;;;1.20;;
59960;SDS011;55902;-37.980;-63.602;2023-02-13T08:35:33;5.00;;;1.42;;
59960;SDS011;55902;-37.980;-63.602;2023-02-13T08:38:03;6.90;;;1.40;;
59960;SDS011;55902;-37.980;-63.602;2023-02-13T08:40:30;3.80;;;1.40;;
59960;SDS011;55902;-37.980;-63.602;2023-02-13T08:43:01;2.70;;;1.20;;
59960;SDS011;55902;-37.980;-63.602;2023-02-13T08:45:32;4.05;;;1.33;;
59960;SDS011;55902;-37.980;-63.602;2023-02-13T08:48:03;2.70;;;1.10;;
59960;SDS011;55902;-37.980;-63.602;2023-02-13T08:50:29;4.15;;;1.20;;
59960;SDS011;55902;-37.980;-63.602;2023-02-13T08:52:57;3.05;;;1.40;;
59960;SDS011;55902;-37.980;-63.602;2023-02-13T08:55:24;3.25;;;1.20;;
59960;SDS011;55902;-37.980;-63.602;2023-02-13T08:57:52;3.67;;;1.20;;
59960;SDS011;55902;-37.980;-63.602;2023-02-13T09:00:23;5.18;;;1.30;;
59960;SDS011;55902;-37.980;-63.602;2023-02-13T09:02:51;5.75;;;1.20;;
59960;SDS011;55902;-37.980;-63.602;2023-02-13T09:05:18;7.28;;;1.40;;
59960;SDS011;55902;-37.980;-63.602;2023-02-13T09:07:45;3.85;;;1.20;;
59960;SDS011;55902;-37.980;-63.602;2023-02-13T09:10:18;2.60;;;1.33;;
59960;SDS011;55902;-37.980;-63.602;2023-02-13T09:12:51;3.45;;;1.23;;
59960;SDS011;55902;-37.980;-63.602;2023-02-13T09:15:19;1.90;;;1.10;;
59960;SDS011;55902;-37.980;-63.602;2023-02-13T09:17:46;2.47;;;0.90;;
59960;SDS011;55902;-37.980;-63.602;2023-02-13T09:20:16;2.72;;;1.08;;
59960;SDS011;55902;-37.980;-63.602;2023-02-13T09:22:43;3.10;;;0.90;;
59960;SDS011;55902;-37.980;-63.602;2023-02-13T09:25:10;1.80;;;1.02;;
59960;SDS011;55902;-37.980;-63.602;2023-02-13T09:43:17;2.38;;;1.00;;
59960;SDS011;55902;-37.980;-63.602;2023-02-13T09:45:52;2.55;;;1.00;;
59960;SDS011;55902;-37.980;-63.602;2023-02-13T09:48:30;3.80;;;1.00;;
59960;SDS011;55902;-37.980;-63.602;2023-02-13T09:51:02;3.08;;;1.10;;
59960;SDS011;55902;-37.980;-63.602;2023-02-13T09:53:30;2.33;;;0.90;;
59960;SDS011;55902;-37.980;-63.602;2023-02-13T09:56:07;2.47;;;0.90;;
59960;SDS011;55902;-37.980;-63.602;2023-02-13T09:58:46;4.38;;;2.90;;
59960;SDS011;55902;-37.980;-63.602;2023-02-13T10:01:29;9.63;;;6.93;;
59960;SDS011;55902;-37.980;-63.602;2023-02-13T10:10:18;3.15;;;1.40;;
59960;SDS011;55902;-37.980;-63.602;2023-02-13T10:13:17;2.15;;;1.00;;
59960;SDS011;55902;-37.980;-63.602;2023-02-13T10:21:37;2.33;;;1.10;;
59960;SDS011;55902;-37.980;-63.602;2023-02-13T10:24:25;3.67;;;1.00;;
59960;SDS011;55902;-37.980;-63.602;2023-02-13T10:30:17;2.25;;;0.90;;
59960;SDS011;55902;-37.980;-63.602;2023-02-13T10:38:19;1.50;;;0.88;;
59960;SDS011;55902;-37.980;-63.602;2023-02-13T10:41:01;4.03;;;0.80;;
59960;SDS011;55902;-37.980;-63.602;2023-02-13T10:43:54;2.17;;;0.93;;
59960;SDS011;55902;-37.980;-63.602;2023-02-13T10:46:44;2.22;;;0.88;;
59960;SDS011;55902;-37.980;-63.602;2023-02-13T11:10:48;1.63;;;0.80;;
59960;SDS011;55902;-37.980;-63.602;2023-02-13T11:13:18;1.95;;;0.80;;
59960;SDS011;55902;-37.980;-63.602;2023-02-13T11:16:05;2.08;;;0.80;;
59960;SDS011;55902;-37.980;-63.602;2023-02-13T11:18:42;3.25;;;0.80;;
59960;SDS011;55902;-37.980;-63.602;2023-02-13T11:21:21;3.05;;;0.70;;
59960;SDS011;55902;-37.980;-63.602;2023-02-13T11:23:59;5.05;;;0.80;;
59960;SDS011;55902;-37.980;-63.602;2023-02-13T11:26:29;6.63;;;0.90;;
59960;SDS011;55902;-37.980;-63.602;2023-02-13T11:31:59;1.98;;;0.80;;
59960;SDS011;55902;-37.980;-63.602;2023-02-13T11:34:37;2.40;;;0.80;;
59960;SDS011;55902;-37.980;-63.602;2023-02-13T11:37:17;2.20;;;1.00;;
59960;SDS011;55902;-37.980;-63.602;2023-02-13T11:39:53;5.63;;;1.00;;
59960;SDS011;55902;-37.980;-63.602;2023-02-13T11:45:04;2.80;;;0.80;;
59960;SDS011;55902;-37.980;-63.602;2023-02-13T11:47:36;1.85;;;0.80;;
59960;SDS011;55902;-37.980;-63.602;2023-02-13T11:50:18;2.72;;;0.70;;
59960;SDS011;55902;-37.980;-63.602;2023-02-13T11:52:59;2.40;;;0.82;;
59960;SDS011;55902;-37.980;-63.602;2023-02-13T11:55:32;1.70;;;0.70;;
59960;SDS011;55902;-37.980;-63.602;2023-02-13T12:00:42;2.08;;;0.70;;
59960;SDS011;55902;-37.980;-63.602;2023-02-13T12:06:25;3.53;;;1.00;;
59960;SDS011;55902;-37.980;-63.602;2023-02-13T12:08:45;2.25;;;0.60;;
59960;SDS011;55902;-37.980;-63.602;2023-02-13T12:13:41;1.55;;;0.60;;
59960;SDS011;55902;-37.980;-63.602;2023-02-13T12:22:13;1.15;;;0.60;;
59960;SDS011;55902;-37.980;-63.602;2023-02-13T12:30:38;1.90;;;0.85;;
59960;SDS011;55902;-37.980;-63.602;2023-02-13T12:33:17;1.83;;;0.52;;
59960;SDS011;55902;-37.980;-63.602;2023-02-13T12:36:00;1.58;;;0.60;;
59960;SDS011;55902;-37.980;-63.602;2023-02-13T12:47:23;1.65;;;0.47;;
59960;SDS011;55902;-37.980;-63.602;2023-02-13T12:58:33;1.58;;;0.52;;
59960;SDS011;55902;-37.980;-63.602;2023-02-13T13:12:09;2.10;;;0.60;;
59960;SDS011;55902;-37.980;-63.602;2023-02-13T13:14:53;2.88;;;0.60;;
59960;SDS011;55902;-37.980;-63.602;2023-02-13T13:22:59;2.55;;;0.70;;
59960;SDS011;55902;-37.980;-63.602;2023-02-13T13:25:36;3.78;;;0.75;;
59960;SDS011;55902;-37.980;-63.602;2023-02-13T13:28:34;3.28;;;0.68;;
59960;SDS011;55902;-37.980;-63.602;2023-02-13T13:31:06;2.25;;;0.60;;
59960;SDS011;55902;-37.980;-63.602;2023-02-13T13:33:35;1.27;;;0.47;;
59960;SDS011;55902;-37.980;-63.602;2023-02-13T13:36:15;1.67;;;0.40;;
59960;SDS011;55902;-37.980;-63.602;2023-02-13T13:38:49;2.40;;;0.50;;
59960;SDS011;55902;-37.980;-63.602;2023-02-13T13:49:53;1.80;;;0.70;;
59960;SDS011;55902;-37.980;-63.602;2023-02-13T13:52:32;0.90;;;0.52;;
59960;SDS011;55902;-37.980;-63.602;2023-02-13T13:55:03;1.13;;;0.50;;
59960;SDS011;55902;-37.980;-63.602;2023-02-13T14:05:22;0.82;;;0.50;;
59960;SDS011;55902;-37.980;-63.602;2023-02-13T14:32:02;1.67;;;0.40;;
59960;SDS011;55902;-37.980;-63.602;2023-02-13T14:37:16;2.25;;;0.50;;
59960;SDS011;55902;-37.980;-63.602;2023-02-13T14:42:36;1.50;;;0.50;;
59960;SDS011;55902;-37.980;-63.602;2023-02-13T14:45:10;1.20;;;0.40;;
59960;SDS011;55902;-37.980;-63.602;2023-02-13T14:47:47;1.10;;;0.50;;
59960;SDS011;55902;-37.980;-63.602;2023-02-13T14:50:29;2.22;;;0.50;;
59960;SDS011;55902;-37.980;-63.602;2023-02-13T14:53:23;2.60;;;0.82;;
59960;SDS011;55902;-37.980;-63.602;2023-02-13T14:55:56;4.78;;;0.82;;
59960;SDS011;55902;-37.980;-63.602;2023-02-13T14:58:49;4.43;;;0.50;;
59960;SDS011;55902;-37.980;-63.602;2023-02-13T15:01:36;1.88;;;0.50;;
59960;SDS011;55902;-37.980;-63.602;2023-02-13T15:06:42;3.67;;;1.30;;
59960;SDS011;55902;-37.980;-63.602;2023-02-13T15:09:18;1.17;;;0.40;;
59960;SDS011;55902;-37.980;-63.602;2023-02-13T15:11:47;0.68;;;0.38;;
59960;SDS011;55902;-37.980;-63.602;2023-02-13T15:16:44;2.40;;;0.40;;
59960;SDS011;55902;-37.980;-63.602;2023-02-13T15:19:15;3.28;;;0.57;;
59960;SDS011;55902;-37.980;-63.602;2023-02-13T15:21:59;1.08;;;0.47;;
59960;SDS011;55902;-37.980;-63.602;2023-02-13T15:24:34;1.30;;;0.40;;
59960;SDS011;55902;-37.980;-63.602;2023-02-13T15:27:19;1.73;;;0.50;;
59960;SDS011;55902;-37.980;-63.602;2023-02-13T15:30:01;1.58;;;0.40;;
59960;SDS011;55902;-37.980;-63.602;2023-02-13T15:32:31;1.35;;;0.50;;
59960;SDS011;55902;-37.980;-63.602;2023-02-13T15:35:06;1.77;;;0.50;;
59960;SDS011;55902;-37.980;-63.602;2023-02-13T15:37:53;1.58;;;0.50;;
59960;SDS011;55902;-37.980;-63.602;2023-02-13T15:40:27;3.83;;;0.57;;
59960;SDS011;55902;-37.980;-63.602;2023-02-13T15:42:56;1.17;;;0.30;;
59960;SDS011;55902;-37.980;-63.602;2023-02-13T15:45:27;1.80;;;0.45;;
59960;SDS011;55902;-37.980;-63.602;2023-02-13T15:47:55;7.05;;;0.50;;
59960;SDS011;55902;-37.980;-63.602;2023-02-13T15:53:03;1.30;;;0.40;;
59960;SDS011;55902;-37.980;-63.602;2023-02-13T15:55:34;1.58;;;0.40;;
59960;SDS011;55902;-37.980;-63.602;2023-02-13T15:58:02;1.80;;;0.40;;
59960;SDS011;55902;-37.980;-63.602;2023-02-13T16:00:32;2.15;;;0.40;;
59960;SDS011;55902;-37.980;-63.602;2023-02-13T16:03:05;2.42;;;0.57;;
59960;SDS011;55902;-37.980;-63.602;2023-02-13T16:05:39;1.70;;;0.40;;
59960;SDS011;55902;-37.980;-63.602;2023-02-13T16:14:00;2.72;;;0.65;;
59960;SDS011;55902;-37.980;-63.602;2023-02-13T16:19:24;1.10;;;0.40;;
59960;SDS011;55902;-37.980;-63.602;2023-02-13T16:21:52;0.90;;;0.32;;
59960;SDS011;55902;-37.980;-63.602;2023-02-13T16:24:21;1.50;;;0.30;;
59960;SDS011;55902;-37.980;-63.602;2023-02-13T16:26:49;0.85;;;0.30;;
59960;SDS011;55902;-37.980;-63.602;2023-02-13T16:29:18;0.50;;;0.30;;
59960;SDS011;55902;-37.980;-63.602;2023-02-13T16:32:01;1.30;;;0.50;;
59960;SDS011;55902;-37.980;-63.602;2023-02-13T16:34:32;1.33;;;0.30;;
59960;SDS011;55902;-37.980;-63.602;2023-02-13T16:36:59;1.65;;;0.40;;
59960;SDS011;55902;-37.980;-63.602;2023-02-13T16:39:27;0.60;;;0.30;;
59960;SDS011;55902;-37.980;-63.602;2023-02-13T16:41:56;1.38;;;0.30;;
59960;SDS011;55902;-37.980;-63.602;2023-02-13T16:44:28;0.70;;;0.30;;
59960;SDS011;55902;-37.980;-63.602;2023-02-13T16:46:58;2.45;;;0.50;;
59960;SDS011;55902;-37.980;-63.602;2023-02-13T16:49:34;1.50;;;0.50;;
59960;SDS011;55902;-37.980;-63.602;2023-02-13T16:52:09;0.80;;;0.40;;
59960;SDS011;55902;-37.980;-63.602;2023-02-13T16:57:27;1.35;;;0.30;;
59960;SDS011;55902;-37.980;-63.602;2023-02-13T17:00:02;3.25;;;0.57;;
59960;SDS011;55902;-37.980;-63.602;2023-02-13T17:02:34;1.80;;;0.40;;
59960;SDS011;55902;-37.980;-63.602;2023-02-13T17:07:40;1.85;;;0.40;;
59960;SDS011;55902;-37.980;-63.602;2023-02-13T17:12:56;0.73;;;0.40;;
59960;SDS011;55902;-37.980;-63.602;2023-02-13T17:15:26;1.02;;;0.30;;
59960;SDS011;55902;-37.980;-63.602;2023-02-13T17:17:55;2.05;;;0.50;;
59960;SDS011;55902;-37.980;-63.602;2023-02-13T17:20:24;1.38;;;0.40;;
59960;SDS011;55902;-37.980;-63.602;2023-02-13T17:22:58;0.60;;;0.30;;
59960;SDS011;55902;-37.980;-63.602;2023-02-13T17:25:31;0.50;;;0.30;;
59960;SDS011;55902;-37.980;-63.602;2023-02-13T17:28:05;0.93;;;0.47;;
59960;SDS011;55902;-37.980;-63.602;2023-02-13T17:30:40;1.63;;;1.00;;
59960;SDS011;55902;-37.980;-63.602;2023-02-13T17:33:16;8.13;;;5.47;;
59960;SDS011;55902;-37.980;-63.602;2023-02-13T17:35:50;6.05;;;3.72;;
59960;SDS011;55902;-37.980;-63.602;2023-02-13T17:38:17;8.30;;;4.60;;
59960;SDS011;55902;-37.980;-63.602;2023-02-13T17:40:44;14.02;;;9.50;;
59960;SDS011;55902;-37.980;-63.602;2023-02-13T17:43:15;8.98;;;5.22;;
59960;SDS011;55902;-37.980;-63.602;2023-02-13T17:45:44;1.40;;;0.80;;
59960;SDS011;55902;-37.980;-63.602;2023-02-13T17:48:18;2.55;;;1.10;;
59960;SDS011;55902;-37.980;-63.602;2023-02-13T17:50:45;3.05;;;0.90;;
59960;SDS011;55902;-37.980;-63.602;2023-02-13T17:53:21;2.85;;;2.20;;
59960;SDS011;55902;-37.980;-63.602;2023-02-13T17:55:54;3.25;;;1.95;;
59960;SDS011;55902;-37.980;-63.602;2023-02-13T17:58:21;4.35;;;1.50;;
59960;SDS011;55902;-37.980;-63.602;2023-02-13T18:00:52;1.58;;;0.70;;
59960;SDS011;55902;-37.980;-63.602;2023-02-13T18:03:26;2.15;;;1.02;;
59960;SDS011;55902;-37.980;-63.602;2023-02-13T18:05:53;3.67;;;0.60;;
59960;SDS011;55902;-37.980;-63.602;2023-02-13T18:08:23;2.88;;;0.85;;
59960;SDS011;55902;-37.980;-63.602;2023-02-13T18:10:50;1.73;;;0.40;;
59960;SDS011;55902;-37.980;-63.602;2023-02-13T18:13:17;1.08;;;0.40;;
59960;SDS011;55902;-37.980;-63.602;2023-02-13T18:15:44;1.00;;;0.40;;
59960;SDS011;55902;-37.980;-63.602;2023-02-13T18:18:13;1.60;;;0.40;;
59960;SDS011;55902;-37.980;-63.602;2023-02-13T18:20:41;0.85;;;0.30;;
59960;SDS011;55902;-37.980;-63.602;2023-02-13T18:23:12;1.02;;;0.30;;
59960;SDS011;55902;-37.980;-63.602;2023-02-13T18:25:39;0.90;;;0.30;;
59960;SDS011;55902;-37.980;-63.602;2023-02-13T18:28:06;1.55;;;0.32;;
59960;SDS011;55902;-37.980;-63.602;2023-02-13T18:30:33;0.45;;;0.30;;
59960;SDS011;55902;-37.980;-63.602;2023-02-13T18:33:03;1.23;;;0.32;;
59960;SDS011;55902;-37.980;-63.602;2023-02-13T18:35:30;0.63;;;0.30;;
59960;SDS011;55902;-37.980;-63.602;2023-02-13T18:38:01;1.15;;;0.30;;
59960;SDS011;55902;-37.980;-63.602;2023-02-13T18:40:32;1.23;;;0.30;;
59960;SDS011;55902;-37.980;-63.602;2023-02-13T18:43:00;1.20;;;0.30;;
59960;SDS011;55902;-37.980;-63.602;2023-02-13T18:45:30;0.82;;;0.32;;
59960;SDS011;55902;-37.980;-63.602;2023-02-13T18:48:00;1.42;;;0.30;;
59960;SDS011;55902;-37.980;-63.602;2023-02-13T18:50:27;0.75;;;0.35;;
59960;SDS011;55902;-37.980;-63.602;2023-02-13T18:52:58;0.60;;;0.30;;
59960;SDS011;55902;-37.980;-63.602;2023-02-13T18:55:28;0.50;;;0.30;;
59960;SDS011;55902;-37.980;-63.602;2023-02-13T18:57:55;2.63;;;0.50;;
59960;SDS011;55902;-37.980;-63.602;2023-02-13T19:00:27;0.63;;;0.30;;
59960;SDS011;55902;-37.980;-63.602;2023-02-13T19:02:57;1.75;;;0.40;;
59960;SDS011;55902;-37.980;-63.602;2023-02-13T19:05:26;2.42;;;0.50;;
59960;SDS011;55902;-37.980;-63.602;2023-02-13T19:07:53;1.00;;;0.40;;
59960;SDS011;55902;-37.980;-63.602;2023-02-13T19:10:20;0.70;;;0.40;;
59960;SDS011;55902;-37.980;-63.602;2023-02-13T19:12:47;0.52;;;0.30;;
59960;SDS011;55902;-37.980;-63.602;2023-02-13T19:15:14;1.10;;;0.43;;
59960;SDS011;55902;-37.980;-63.602;2023-02-13T19:17:41;1.63;;;0.40;;
59960;SDS011;55902;-37.980;-63.602;2023-02-13T19:20:08;1.13;;;0.40;;
59960;SDS011;55902;-37.980;-63.602;2023-02-13T19:22:36;3.58;;;0.40;;
59960;SDS011;55902;-37.980;-63.602;2023-02-13T19:25:03;4.35;;;0.70;;
59960;SDS011;55902;-37.980;-63.602;2023-02-13T19:27:34;3.03;;;1.40;;